Time;durP1;ratioP1;P1;durP2;ratioP2;P2;SDS_P1;SDS_P2;PMS_P1;PMS_P2;Temp;Humidity;BMP_temperature;BMP_pressure;BME280_temperature;BME280_humidity;BME280_pressure;Samples;Min_cycle;Max_cycle;Signal;HPM_P1;HPM_P2
2022/04/27 00:02:14;;;;;;;11.77;8.23;;;4.20;99.90;;;;;;5131442;27;20101;-66
2022/04/27 00:04:39;;;;;;;8.98;7.15;;;3.90;99.90;;;;;;5148431;27;20110;-66
2022/04/27 00:07:07;;;;;;;11.55;7.97;;;3.80;99.90;;;;;;5167387;27;20038;-66
2022/04/27 00:09:33;;;;;;;10.45;7.93;;;4.00;99.90;;;;;;5148943;27;20043;-66
2022/04/27 00:12:01;;;;;;;11.75;7.93;;;4.10;99.90;;;;;;5166757;27;20426;-66
2022/04/27 00:14:31;;;;;;;12.68;8.00;;;4.30;99.90;;;;;;5166775;27;20051;-66
2022/04/27 00:16:57;;;;;;;;;;;4.10;99.90;;;;;;5143397;27;20114;-66
2022/04/27 00:19:24;;;;;;;12.48;7.68;;;4.00;99.90;;;;;;5142822;28;19926;-66
2022/04/27 00:21:50;;;;;;;9.30;6.90;;;3.70;99.90;;;;;;5140397;27;20035;-66
2022/04/27 00:24:16;;;;;;;9.85;7.50;;;3.60;99.90;;;;;;5134804;27;20050;-66
2022/04/27 00:26:41;;;;;;;13.15;8.25;;;3.50;99.90;;;;;;5153080;27;20095;-66
2022/04/27 00:29:07;;;;;;;10.18;7.53;;;3.60;99.90;;;;;;5152499;27;20098;-66
2022/04/27 00:31:33;;;;;;;9.85;7.35;;;3.60;99.90;;;;;;5135753;27;20039;-66
2022/04/27 00:34:00;;;;;;;13.20;8.25;;;3.60;99.90;;;;;;5170776;27;20038;-66
2022/04/27 00:36:27;;;;;;;9.50;7.75;;;3.40;99.90;;;;;;5170989;27;20043;-66
2022/04/27 00:38:53;;;;;;;9.18;7.80;;;3.30;99.90;;;;;;5152807;27;20046;-66
2022/04/27 00:41:19;;;;;;;12.10;8.02;;;3.30;99.90;;;;;;5152883;27;20047;-66
2022/04/27 00:43:45;;;;;;;10.18;7.55;;;3.40;99.90;;;;;;5138496;27;20056;-66
2022/04/27 00:46:11;;;;;;;13.15;7.30;;;3.50;99.90;;;;;;5152490;27;20572;-66
2022/04/27 00:48:41;;;;;;;13.98;8.70;;;3.40;99.90;;;;;;5148993;27;20042;-66
2022/04/27 00:51:08;;;;;;;;;;;3.30;99.90;;;;;;5131153;27;20049;-66
2022/04/27 00:53:35;;;;;;;10.00;7.05;;;3.20;99.90;;;;;;5166523;27;19923;-66
2022/04/27 00:56:02;;;;;;;10.52;7.60;;;3.30;99.90;;;;;;5142098;27;20091;-66
2022/04/27 00:58:28;;;;;;;10.02;7.47;;;3.20;99.90;;;;;;5151955;27;20051;-66
2022/04/27 01:00:54;;;;;;;11.23;7.13;;;3.10;99.90;;;;;;5152417;27;20085;-66
2022/04/27 01:03:20;;;;;;;11.40;7.07;;;3.20;99.90;;;;;;5171049;27;20163;-66
2022/04/27 01:05:48;;;;;;;8.73;7.10;;;3.30;99.90;;;;;;5152280;27;20045;-66
2022/04/27 01:08:15;;;;;;;8.05;6.88;;;3.30;99.90;;;;;;5170986;27;20070;-66
2022/04/27 01:10:46;;;;;;;11.75;7.15;;;3.20;99.90;;;;;;5151910;27;20043;-66
2022/04/27 01:13:12;;;;;;;;;;;3.40;99.90;;;;;;5170288;27;20046;-66
2022/04/27 01:15:38;;;;;;;9.20;6.63;;;3.10;99.90;;;;;;5151455;27;20018;-66
2022/04/27 01:18:04;;;;;;;10.65;7.78;;;3.20;99.90;;;;;;5150136;27;20078;-66
2022/04/27 01:20:44;;;;;;;9.70;7.70;;;3.20;99.90;;;;;;5170251;27;20038;-65
2022/04/27 01:23:12;;;;;;;10.05;7.93;;;3.10;99.90;;;;;;5151911;27;20039;-66
2022/04/27 01:25:56;;;;;;;11.30;7.43;;;2.90;99.90;;;;;;5134251;27;20043;-66
2022/04/27 01:28:23;;;;;;;14.45;7.97;;;2.90;99.90;;;;;;5170096;27;20038;-66
2022/04/27 01:31:05;;;;;;;11.95;7.93;;;2.90;99.90;;;;;;5151047;27;20038;-66
2022/04/27 01:33:34;;;;;;;14.05;8.82;;;3.10;99.90;;;;;;5169424;27;20054;-66
2022/04/27 01:36:00;;;;;;;16.40;9.45;;;3.10;99.90;;;;;;5150447;27;20043;-66
2022/04/27 01:38:26;;;;;;;12.23;8.77;;;2.80;99.90;;;;;;5169861;27;20418;-66
2022/04/27 01:40:54;;;;;;;20.63;10.65;;;2.70;99.90;;;;;;5169485;27;20046;-66
2022/04/27 01:43:24;;;;;;;10.70;8.55;;;2.60;99.90;;;;;;5169953;27;20045;-65
2022/04/27 01:45:53;;;;;;;13.77;8.93;;;2.70;99.90;;;;;;5170350;27;20379;-66
2022/04/27 01:48:19;;;;;;;11.82;9.10;;;2.90;99.90;;;;;;5151661;27;20038;-66
2022/04/27 01:50:46;;;;;;;11.23;8.52;;;2.80;99.90;;;;;;5151205;27;20047;-66
2022/04/27 01:55:58;;;;;;;14.48;8.50;;;3.10;99.90;;;;;;5121494;27;20051;-66
2022/04/27 01:58:24;;;;;;;13.77;9.35;;;2.90;99.90;;;;;;5150823;27;20546;-66
2022/04/27 02:00:50;;;;;;;13.27;9.35;;;2.80;99.90;;;;;;5150578;27;20046;-66
2022/04/27 02:03:18;;;;;;;12.27;8.70;;;3.00;99.90;;;;;;5150364;27;20049;-66
2022/04/27 02:05:44;;;;;;;11.88;9.05;;;3.00;99.90;;;;;;5169104;27;20050;-66
2022/04/27 02:08:10;;;;;;;14.40;9.55;;;2.80;99.90;;;;;;5169212;27;20057;-65
2022/04/27 02:10:36;;;;;;;14.50;10.45;;;3.00;99.90;;;;;;5150466;27;20034;-66
2022/04/27 02:13:04;;;;;;;13.38;9.88;;;3.30;99.90;;;;;;5150165;27;20050;-66
2022/04/27 02:15:30;;;;;;;15.73;10.15;;;3.40;99.90;;;;;;5150919;27;20058;-65
2022/04/27 02:17:56;;;;;;;12.68;10.35;;;3.50;99.90;;;;;;5144405;27;20043;-66
2022/04/27 02:20:23;;;;;;;17.25;10.30;;;3.50;99.90;;;;;;5150054;27;20038;-66
2022/04/27 02:22:52;;;;;;;13.18;10.07;;;3.70;99.90;;;;;;5150194;27;20106;-66
2022/04/27 02:25:18;;;;;;;15.95;9.98;;;3.60;99.90;;;;;;5168911;27;20031;-66
2022/04/27 02:27:44;;;;;;;15.45;10.88;;;3.60;99.90;;;;;;5151090;27;20078;-66
2022/04/27 02:30:11;;;;;;;14.10;10.73;;;3.60;99.90;;;;;;5150892;27;20038;-66
2022/04/27 02:32:38;;;;;;;13.70;10.93;;;3.60;99.90;;;;;;5150477;27;20043;-66
2022/04/27 02:35:05;;;;;;;14.15;10.25;;;3.80;99.90;;;;;;5169222;27;20034;-66
2022/04/27 02:37:31;;;;;;;16.27;11.25;;;3.90;99.90;;;;;;5150212;27;20042;-66
2022/04/27 02:39:57;;;;;;;13.60;10.30;;;4.00;99.90;;;;;;5150579;27;20095;-66
2022/04/27 02:42:24;;;;;;;18.33;10.57;;;4.10;99.90;;;;;;5168575;27;20043;-66
2022/04/27 02:44:49;;;;;;;14.38;10.52;;;4.00;99.90;;;;;;5149776;27;20046;-66
2022/04/27 02:47:15;;;;;;;17.27;9.93;;;4.00;99.90;;;;;;5150009;27;20110;-66
2022/04/27 02:52:25;;;;;;;21.10;10.80;;;4.00;99.90;;;;;;5149423;27;20490;-66
2022/04/27 02:54:51;;;;;;;13.70;9.75;;;4.20;99.90;;;;;;5168135;27;20053;-66
2022/04/27 02:57:17;;;;;;;16.45;11.95;;;4.10;99.90;;;;;;5149616;27;20042;-66
2022/04/27 02:59:43;;;;;;;14.45;10.23;;;4.30;99.90;;;;;;5147008;27;20125;-66
2022/04/27 03:02:09;;;;;;;16.05;10.65;;;4.30;99.90;;;;;;5157024;27;20090;-66
2022/04/27 03:04:35;;;;;;;17.02;10.77;;;4.40;99.90;;;;;;5149642;27;20058;-66
2022/04/27 03:07:01;;;;;;;12.50;10.80;;;4.30;99.90;;;;;;5168297;27;20049;-66
2022/04/27 03:09:27;;;;;;;12.82;10.70;;;4.30;99.90;;;;;;5149246;27;20046;-66
2022/04/27 03:11:53;;;;;;;17.25;11.48;;;4.50;99.90;;;;;;5149898;27;20053;-66
2022/04/27 03:14:19;;;;;;;13.65;11.50;;;4.30;99.90;;;;;;5167552;27;20053;-66
2022/04/27 03:16:45;;;;;;;16.27;10.95;;;4.40;99.90;;;;;;5143430;27;20077;-66
2022/04/27 03:19:11;;;;;;;16.25;10.73;;;4.40;99.90;;;;;;5148511;27;20055;-66
2022/04/27 03:21:37;;;;;;;13.45;11.27;;;4.50;99.90;;;;;;5149239;27;20043;-66
2022/04/27 03:24:03;;;;;;;19.55;12.18;;;4.40;99.90;;;;;;5149269;27;20054;-66
2022/04/27 03:26:29;;;;;;;13.63;10.40;;;4.40;99.90;;;;;;5168432;27;20055;-65
2022/04/27 03:28:55;;;;;;;17.75;11.25;;;4.40;99.90;;;;;;5167645;27;20066;-65
2022/04/27 03:31:21;;;;;;;17.55;10.88;;;4.40;99.90;;;;;;5148930;27;20398;-66
2022/04/27 03:33:46;;;;;;;13.15;10.55;;;4.50;99.90;;;;;;5131888;27;20080;-66
2022/04/27 03:36:12;;;;;;;16.20;11.13;;;4.50;99.90;;;;;;5149292;27;20046;-66
2022/04/27 03:38:38;;;;;;;15.98;10.65;;;4.50;99.90;;;;;;5148909;27;20413;-66
2022/04/27 03:41:05;;;;;;;16.20;12.05;;;4.40;99.90;;;;;;5148715;27;20038;-66
2022/04/27 03:43:31;;;;;;;15.13;10.90;;;4.50;99.90;;;;;;5149014;27;20050;-66
2022/04/27 03:45:57;;;;;;;15.02;10.23;;;4.40;99.90;;;;;;5167841;27;20098;-66
2022/04/27 03:48:22;;;;;;;13.82;11.45;;;4.60;99.90;;;;;;5149609;27;20047;-66
2022/04/27 03:50:48;;;;;;;14.25;11.05;;;4.60;99.90;;;;;;5143398;27;20406;-66
2022/04/27 03:53:14;;;;;;;18.70;10.35;;;4.70;99.90;;;;;;5148094;27;20066;-66
2022/04/27 03:55:40;;;;;;;14.30;10.40;;;4.80;99.90;;;;;;5148218;27;20081;-66
2022/04/27 03:58:06;;;;;;;15.80;9.90;;;5.00;99.90;;;;;;5148446;27;20046;-66
2022/04/27 04:00:32;;;;;;;17.50;10.95;;;5.00;99.90;;;;;;5167726;27;20060;-66
2022/04/27 04:03:00;;;;;;;12.18;9.85;;;5.00;99.90;;;;;;5148662;27;20105;-66
2022/04/27 04:05:26;;;;;;;15.05;10.82;;;5.00;99.90;;;;;;5148389;27;20049;-66
2022/04/27 04:07:52;;;;;;;14.15;9.98;;;5.10;99.90;;;;;;5148567;27;20051;-66
2022/04/27 04:10:18;;;;;;;14.30;10.30;;;5.00;99.90;;;;;;5148187;27;20045;-66
2022/04/27 04:12:45;;;;;;;15.00;10.20;;;5.00;99.90;;;;;;5166871;27;20153;-66
2022/04/27 04:15:11;;;;;;;16.00;11.05;;;4.90;99.90;;;;;;5166598;27;20039;-66
2022/04/27 04:17:37;;;;;;;13.20;10.60;;;4.90;99.90;;;;;;5147981;27;20046;-66
2022/04/27 04:20:04;;;;;;;11.02;9.63;;;5.10;99.90;;;;;;5153134;27;20041;-66
2022/04/27 04:22:29;;;;;;;13.88;10.45;;;4.90;99.90;;;;;;5167292;27;20098;-66
2022/04/27 04:30:24;;;;;;;16.58;11.07;;;5.10;99.90;;;;;;5135433;27;20050;-66
2022/04/27 04:32:49;;;;;;;17.75;12.07;;;5.10;99.90;;;;;;5148407;27;20050;-66
2022/04/27 04:35:15;;;;;;;16.63;11.38;;;5.10;99.90;;;;;;5167182;27;20039;-66
2022/04/27 04:37:41;;;;;;;20.05;11.43;;;5.30;99.90;;;;;;5148364;27;20090;-66
2022/04/27 04:40:07;;;;;;;16.00;11.10;;;5.30;99.90;;;;;;5166514;27;20039;-66
2022/04/27 04:42:35;;;;;;;16.95;10.95;;;5.40;99.90;;;;;;5166439;27;20126;-65
2022/04/27 04:45:01;;;;;;;18.55;11.57;;;5.20;99.90;;;;;;5134385;27;20075;-66
2022/04/27 04:47:27;;;;;;;15.43;11.95;;;5.40;99.90;;;;;;5166599;27;20103;-66
2022/04/27 04:49:52;;;;;;;17.85;11.48;;;5.30;99.90;;;;;;5166460;27;20106;-66
2022/04/27 04:52:18;;;;;;;15.80;11.40;;;5.40;99.90;;;;;;5166460;27;20043;-66
2022/04/27 04:54:44;;;;;;;18.42;11.45;;;5.30;99.90;;;;;;5166252;27;20054;-66
2022/04/27 04:57:10;;;;;;;16.35;11.65;;;5.50;99.90;;;;;;5166937;27;20055;-66
2022/04/27 04:59:35;;;;;;;19.25;12.00;;;5.50;99.90;;;;;;5166461;27;20038;-66
2022/04/27 05:02:01;;;;;;;17.50;11.40;;;5.50;99.90;;;;;;5166534;27;20047;-66
2022/04/27 05:04:27;;;;;;;16.65;11.00;;;5.60;99.90;;;;;;5147271;27;20046;-65
2022/04/27 05:06:52;;;;;;;16.15;11.40;;;5.70;99.90;;;;;;5166462;27;20050;-66
2022/04/27 05:09:18;;;;;;;13.90;11.13;;;5.70;99.90;;;;;;5168140;27;20072;-66
2022/04/27 05:11:44;;;;;;;17.50;12.10;;;5.70;99.90;;;;;;5151510;27;20046;-66
2022/04/27 05:14:10;;;;;;;17.70;11.57;;;5.70;99.90;;;;;;5151296;27;20049;-66
2022/04/27 05:16:36;;;;;;;15.25;11.00;;;5.70;99.90;;;;;;5151423;27;20038;-66
2022/04/27 05:19:03;;;;;;;15.73;11.82;;;5.80;99.90;;;;;;5146472;27;20545;-65
2022/04/27 05:21:29;;;;;;;18.83;11.90;;;5.90;99.90;;;;;;5159952;27;20043;-66
2022/04/27 05:23:55;;;;;;;18.58;12.02;;;5.90;99.90;;;;;;5151286;27;20047;-66
2022/04/27 05:26:21;;;;;;;18.85;12.43;;;5.90;99.90;;;;;;5161488;27;20107;-66
2022/04/27 05:34:16;;;;;;;15.40;11.77;;;6.20;99.90;;;;;;5150852;27;20095;-65
2022/04/27 05:36:41;;;;;;;15.02;12.07;;;6.10;99.90;;;;;;5151625;27;20046;-65
2022/04/27 05:39:07;;;;;;;23.80;13.65;;;6.20;99.90;;;;;;5164052;27;20068;-65
2022/04/27 05:41:34;;;;;;;15.18;12.30;;;6.20;99.90;;;;;;5162642;27;20031;-66
2022/04/27 05:44:02;;;;;;;22.52;12.65;;;6.30;99.90;;;;;;5151340;27;20094;-65
2022/04/27 05:46:28;;;;;;;16.50;11.90;;;6.40;99.90;;;;;;5169156;27;20106;-66
2022/04/27 05:48:54;;;;;;;17.20;11.98;;;6.60;99.90;;;;;;5169092;27;20114;-66
2022/04/27 05:51:20;;;;;;;17.85;11.82;;;6.40;99.90;;;;;;5150603;27;20072;-66
2022/04/27 05:53:45;;;;;;;18.65;11.85;;;6.30;99.90;;;;;;5150228;27;20049;-66
2022/04/27 05:56:12;;;;;;;16.65;12.10;;;6.40;99.90;;;;;;5156998;27;20538;-66
2022/04/27 05:58:38;;;;;;;17.98;12.52;;;6.40;99.90;;;;;;5130719;27;20051;-66
2022/04/27 06:01:04;;;;;;;15.90;12.30;;;6.50;99.90;;;;;;5149164;27;20050;-66
2022/04/27 06:03:30;;;;;;;17.67;12.70;;;6.50;99.90;;;;;;5130643;27;20050;-66
2022/04/27 06:05:56;;;;;;;16.00;12.13;;;6.60;99.90;;;;;;5148537;27;20100;-66
2022/04/27 06:08:22;;;;;;;19.13;11.95;;;6.60;99.90;;;;;;5148497;27;20050;-66
2022/04/27 06:10:48;;;;;;;18.20;11.98;;;6.60;99.90;;;;;;5169131;27;20099;-66
2022/04/27 06:13:14;;;;;;;18.33;12.10;;;6.70;99.90;;;;;;5133077;27;20055;-66
2022/04/27 06:15:39;;;;;;;17.23;11.70;;;6.70;99.90;;;;;;5168362;27;20043;-66
2022/04/27 06:18:05;;;;;;;17.67;12.57;;;6.70;99.90;;;;;;5165586;27;20041;-65
2022/04/27 06:20:31;;;;;;;17.75;12.68;;;6.80;99.90;;;;;;5168280;27;20562;-65
2022/04/27 06:22:57;;;;;;;18.52;12.43;;;7.00;99.90;;;;;;5149317;27;20074;-66
2022/04/27 06:25:25;;;;;;;17.30;11.82;;;6.90;99.90;;;;;;5149688;27;20035;-66
2022/04/27 06:27:51;;;;;;;18.70;11.52;;;7.00;99.90;;;;;;5169019;27;20035;-66
2022/04/27 06:30:18;;;;;;;15.80;12.15;;;7.10;99.90;;;;;;5168430;27;20042;-66
2022/04/27 06:32:43;;;;;;;16.95;11.35;;;7.10;99.90;;;;;;5149981;27;20038;-66
2022/04/27 06:35:13;;;;;;;14.70;10.30;;;7.20;99.90;;;;;;5149086;27;20516;-66
2022/04/27 06:37:42;;;;;;;18.00;12.60;;;7.40;99.90;;;;;;5167556;27;20113;-67
2022/04/27 06:40:08;;;;;;;17.02;11.10;;;7.30;99.90;;;;;;5149102;27;20099;-62
2022/04/27 06:42:35;;;;;;;15.63;10.38;;;7.40;99.90;;;;;;5168462;27;20053;-63
2022/04/27 06:45:04;;;;;;;13.98;10.13;;;7.30;99.90;;;;;;5150337;27;20046;-63
2022/04/27 06:47:30;;;;;;;10.70;8.13;;;7.50;99.90;;;;;;5168280;27;20053;-63
2022/04/27 06:49:56;;;;;;;17.35;10.52;;;7.50;99.90;;;;;;5142982;27;20070;-61
2022/04/27 06:52:22;;;;;;;19.20;11.05;;;7.60;99.90;;;;;;5145896;27;20062;-62
2022/04/27 06:54:47;;;;;;;15.45;10.13;;;7.60;99.90;;;;;;5128676;27;20058;-62
2022/04/27 06:57:13;;;;;;;14.32;9.65;;;7.70;99.90;;;;;;5129908;27;20043;-61
2022/04/27 06:59:39;;;;;;;13.55;10.73;;;7.90;99.90;;;;;;5146534;27;20497;-61
2022/04/27 07:02:05;;;;;;;14.50;10.10;;;7.90;99.90;;;;;;5147619;27;20034;-61
2022/04/27 07:04:34;;;;;;;16.38;9.48;;;7.90;99.90;;;;;;5167031;27;20065;-62
2022/04/27 07:07:04;;;;;;;14.25;10.80;;;7.90;99.90;;;;;;5165984;27;20034;-62
2022/04/27 07:09:31;;;;;;;12.48;9.57;;;8.00;99.90;;;;;;5165812;27;20039;-62
2022/04/27 07:11:56;;;;;;;12.50;9.52;;;7.90;99.90;;;;;;5148544;27;20576;-62
2022/04/27 07:14:23;;;;;;;14.40;10.57;;;8.00;99.90;;;;;;5132658;27;20111;-61
2022/04/27 07:16:49;;;;;;;18.45;11.38;;;8.10;99.90;;;;;;5146263;27;20489;-61
2022/04/27 07:19:14;;;;;;;15.88;9.55;;;8.10;99.90;;;;;;5164708;27;20069;-61
2022/04/27 07:21:41;;;;;;;11.45;9.77;;;8.20;99.90;;;;;;5127824;27;20068;-61
2022/04/27 07:24:07;;;;;;;11.27;8.82;;;8.20;99.90;;;;;;5128530;27;20039;-62
2022/04/27 07:26:33;;;;;;;12.27;8.95;;;8.30;99.90;;;;;;5144858;27;20057;-61
2022/04/27 07:28:58;;;;;;;12.35;8.90;;;8.40;99.90;;;;;;5131183;27;20097;-62
2022/04/27 07:31:25;;;;;;;11.93;7.72;;;8.60;99.90;;;;;;5166659;27;20158;-61
2022/04/27 07:33:52;;;;;;;12.73;9.40;;;8.60;99.90;;;;;;5147865;27;20043;-65
2022/04/27 07:36:18;;;;;;;10.95;7.03;;;8.60;99.90;;;;;;5166947;27;20046;-62
2022/04/27 07:38:44;;;;;;;9.45;7.15;;;8.70;99.90;;;;;;5148492;27;20051;-62
2022/04/27 07:41:11;;;;;;;10.63;7.75;;;8.90;99.90;;;;;;5168004;27;20046;-64
2022/04/27 07:43:36;;;;;;;13.70;8.07;;;9.00;99.90;;;;;;5167532;27;20071;-66
2022/04/27 07:46:07;;;;;;;9.73;7.53;;;9.00;99.90;;;;;;5148831;27;20061;-63
2022/04/27 07:48:33;;;;;;;10.75;7.65;;;9.10;99.90;;;;;;5134946;27;20122;-63
2022/04/27 07:50:59;;;;;;;11.40;8.10;;;9.20;99.90;;;;;;5135084;27;20502;-65
2022/04/27 07:53:25;;;;;;;8.80;7.25;;;9.10;99.90;;;;;;5128797;27;20103;-63
2022/04/27 07:55:51;;;;;;;9.70;7.68;;;9.20;99.90;;;;;;5166845;27;20061;-65
2022/04/27 07:58:17;;;;;;;9.65;7.32;;;9.30;99.90;;;;;;5166347;27;20043;-64
2022/04/27 08:00:43;;;;;;;10.57;7.30;;;9.30;99.90;;;;;;5148605;27;20046;-66
2022/04/27 08:03:08;;;;;;;10.60;7.30;;;9.30;99.90;;;;;;5165869;27;20035;-66
2022/04/27 08:05:34;;;;;;;12.95;7.85;;;9.40;99.90;;;;;;5163350;27;20055;-66
2022/04/27 08:08:00;;;;;;;8.23;5.80;;;9.40;99.90;;;;;;5165060;27;20106;-66
2022/04/27 08:10:26;;;;;;;11.43;6.72;;;9.50;99.90;;;;;;5165809;27;20473;-65
2022/04/27 08:12:52;;;;;;;8.23;5.43;;;9.60;99.90;;;;;;5147608;27;20053;-65
2022/04/27 08:15:20;;;;;;;8.52;5.55;;;9.60;99.90;;;;;;5166212;27;20038;-66
2022/04/27 08:18:01;;;;;;;8.15;5.35;;;9.70;99.90;;;;;;5162528;27;20079;-66
2022/04/27 08:23:22;;;;;;;9.30;4.05;;;9.80;99.90;;;;;;5145506;27;20039;-66
2022/04/27 08:25:50;;;;;;;6.38;3.33;;;9.90;99.90;;;;;;5145854;27;20038;-66
2022/04/27 08:28:17;;;;;;;3.67;2.45;;;10.00;99.90;;;;;;5127231;28;20224;-65
2022/04/27 08:30:45;;;;;;;6.22;3.45;;;10.00;99.90;;;;;;5146872;27;20039;-65
2022/04/27 08:33:12;;;;;;;3.40;2.83;;;10.20;99.90;;;;;;5127995;28;20050;-65
2022/04/27 08:35:38;;;;;;;4.65;3.50;;;10.10;99.90;;;;;;5164003;27;20043;-65
2022/04/27 08:38:09;;;;;;;4.80;3.08;;;10.00;99.90;;;;;;5147134;27;20118;-65
2022/04/27 08:40:36;;;;;;;4.82;3.20;;;10.30;99.90;;;;;;5147136;27;20054;-65
2022/04/27 08:43:03;;;;;;;3.75;2.65;;;10.20;99.90;;;;;;5147383;27;20071;-65
2022/04/27 08:45:29;;;;;;;4.55;2.28;;;10.40;99.90;;;;;;5170041;27;20083;-65
2022/04/27 08:47:56;;;;;;;4.05;2.25;;;10.70;99.90;;;;;;5151167;27;20065;-65
2022/04/27 08:50:24;;;;;;;2.92;2.15;;;10.50;99.90;;;;;;5169841;27;20115;-65
2022/04/27 08:52:50;;;;;;;6.57;2.67;;;10.50;99.90;;;;;;5151760;27;20075;-65
2022/04/27 08:55:17;;;;;;;7.55;2.72;;;10.60;99.90;;;;;;5145825;27;20104;-65
2022/04/27 08:57:43;;;;;;;5.40;2.42;;;10.70;99.90;;;;;;5148964;27;20047;-65
2022/04/27 09:00:17;;;;;;;3.38;2.72;;;10.60;99.90;;;;;;5113702;27;20089;-65
2022/04/27 09:02:43;;;;;;;4.05;2.47;;;10.50;99.90;;;;;;5130783;27;20115;-65
2022/04/27 09:05:27;;;;;;;5.95;2.40;;;10.50;99.90;;;;;;5131603;27;20466;-65
2022/04/27 09:07:56;;;;;;;2.50;2.30;;;10.60;99.90;;;;;;5130380;27;20071;-65
2022/04/27 09:10:24;;;;;;;6.65;2.30;;;10.50;99.90;;;;;;5153436;27;20038;-65
2022/04/27 09:12:52;;;;;;;2.70;2.30;;;10.70;99.90;;;;;;5151234;27;20046;-65
2022/04/27 09:15:22;;;;;;;5.43;2.97;;;10.70;99.90;;;;;;5169420;27;20039;-65
2022/04/27 09:20:50;;;;;;;5.65;2.85;;;10.60;99.90;;;;;;5150315;27;20049;-65
2022/04/27 09:23:22;;;;;;;5.68;2.67;;;10.70;99.90;;;;;;5130916;27;20046;-65
2022/04/27 09:25:52;;;;;;;4.95;2.60;;;10.70;99.90;;;;;;5148906;27;20126;-65
2022/04/27 09:28:23;;;;;;;6.72;2.80;;;10.80;99.90;;;;;;5133649;27;20035;-65
2022/04/27 09:30:49;;;;;;;4.18;2.38;;;10.70;99.90;;;;;;5149694;27;20047;-65
2022/04/27 09:33:38;;;;;;;5.03;2.10;;;10.90;99.90;;;;;;5131144;27;20050;-65
2022/04/27 09:36:23;;;;;;;3.65;2.65;;;10.80;99.90;;;;;;5148269;27;20367;-65
2022/04/27 09:38:50;;;;;;;6.50;2.60;;;11.10;99.90;;;;;;5169363;27;20073;-65
2022/04/27 09:41:34;;;;;;;6.90;2.58;;;11.20;99.90;;;;;;5150527;27;20566;-65
2022/04/27 09:44:00;;;;;;;4.57;2.75;;;11.20;99.90;;;;;;5168847;27;20114;-65
2022/04/27 09:46:26;;;;;;;4.28;2.28;;;11.40;99.90;;;;;;5150703;27;20046;-65
2022/04/27 09:49:08;;;;;;;6.53;3.17;;;11.50;99.90;;;;;;5169337;27;20102;-65
2022/04/27 09:51:35;;;;;;;4.70;2.60;;;11.40;99.90;;;;;;5150176;27;20398;-65
2022/04/27 09:54:03;;;;;;;6.63;2.55;;;11.50;99.90;;;;;;5165559;27;20062;-65
2022/04/27 09:56:35;;;;;;;4.22;2.40;;;11.60;99.90;;;;;;5146828;27;20057;-65
2022/04/27 09:59:05;;;;;;;6.45;2.88;;;11.70;99.90;;;;;;5129560;27;20031;-65
2022/04/27 10:01:34;;;;;;;;;;;11.70;99.90;;;;;;5130031;27;20045;-65
2022/04/27 10:04:06;;;;;;;6.75;2.75;;;11.60;99.90;;;;;;5148068;27;19925;-65
2022/04/27 10:06:34;;;;;;;3.85;2.70;;;11.50;99.90;;;;;;5129475;27;20082;-65
2022/04/27 10:09:02;;;;;;;7.38;3.60;;;11.70;99.90;;;;;;5147745;27;20039;-65
2022/04/27 10:11:29;;;;;;;4.53;2.67;;;11.70;99.90;;;;;;5161193;27;20034;-65
2022/04/27 10:13:55;;;;;;;6.43;2.50;;;11.90;99.90;;;;;;5150326;27;20038;-65
2022/04/27 10:16:26;;;;;;;4.18;2.40;;;11.90;99.90;;;;;;5150855;27;20035;-65
2022/04/27 10:18:52;;;;;;;5.63;2.83;;;12.00;99.90;;;;;;5167653;27;20050;-65
2022/04/27 10:21:56;;;;;;;3.45;2.60;;;11.90;99.90;;;;;;5137066;27;20122;-65
2022/04/27 10:24:34;;;;;;;4.18;2.40;;;11.80;99.90;;;;;;5139744;27;20053;-65
2022/04/27 10:27:21;;;;;;;4.38;2.67;;;11.90;99.90;;;;;;5149434;27;20043;-65
2022/04/27 10:29:52;;;;;;;4.55;2.45;;;11.90;99.90;;;;;;5169107;27;20042;-65
2022/04/27 10:32:51;;;;;;;5.07;2.40;;;11.70;99.90;;;;;;5150374;27;20539;-65
2022/04/27 10:35:21;;;;;;;6.00;2.38;;;11.90;99.90;;;;;;5046968;28;20052;-65
2022/04/27 10:37:57;;;;;;;10.90;2.97;;;12.00;99.90;;;;;;5030907;28;20557;-65
2022/04/27 10:40:37;;;;;;;7.10;2.40;;;12.00;99.90;;;;;;5050744;28;20099;-65
2022/04/27 10:43:13;;;;;;;8.50;3.08;;;12.10;99.90;;;;;;5064336;28;20051;-67
2022/04/27 10:45:48;;;;;;;4.15;2.28;;;12.20;99.90;;;;;;5046945;28;20060;-66
2022/04/27 10:48:27;;;;;;;4.70;2.38;;;12.30;99.90;;;;;;5046453;28;20281;-66
2022/04/27 10:51:02;;;;;;;4.38;2.53;;;12.50;99.90;;;;;;5046276;28;20067;-66
2022/04/27 10:53:38;;;;;;;4.05;2.75;;;12.50;99.90;;;;;;5046122;28;20106;-66
2022/04/27 10:56:23;;;;;;;5.25;2.63;;;12.50;99.90;;;;;;5063082;28;20096;-66
2022/04/27 10:58:49;;;;;;;5.90;2.95;;;12.50;99.90;;;;;;5045896;28;20060;-66
2022/04/27 11:01:19;;;;;;;5.47;3.05;;;12.60;99.90;;;;;;5046334;28;20063;-66
2022/04/27 11:03:56;;;;;;;5.45;2.65;;;12.70;99.90;;;;;;5063007;28;20109;-66
2022/04/27 11:06:23;;;;;;;4.35;2.50;;;12.80;99.90;;;;;;5046700;28;20137;-66
2022/04/27 11:09:10;;;;;;;6.35;3.03;;;13.10;99.90;;;;;;5062923;28;20064;-66
2022/04/27 11:11:52;;;;;;;4.63;2.78;;;13.20;99.90;;;;;;5127385;27;20055;-66
2022/04/27 11:14:20;;;;;;;6.05;2.95;;;13.10;99.90;;;;;;5149276;27;20046;-66
2022/04/27 11:16:47;;;;;;;5.55;3.00;;;13.10;99.90;;;;;;5165286;27;20035;-66
2022/04/27 11:19:14;;;;;;;6.25;2.85;;;13.30;99.90;;;;;;5148391;27;20076;-66
2022/04/27 11:21:40;;;;;;;5.15;2.55;;;13.00;99.90;;;;;;5139230;27;20039;-66
2022/04/27 11:24:07;;;;;;;5.15;2.65;;;12.90;99.90;;;;;;5129322;27;20039;-66
2022/04/27 11:26:47;;;;;;;5.93;3.03;;;12.70;99.90;;;;;;5128903;27;20078;-66
2022/04/27 11:29:14;;;;;;;4.05;2.78;;;12.80;99.90;;;;;;5145842;27;20075;-66
2022/04/27 11:31:43;;;;;;;5.95;3.10;;;13.00;99.90;;;;;;5146198;27;20039;-66
2022/04/27 11:34:28;;;;;;;4.38;2.60;;;13.10;99.90;;;;;;5151697;27;20038;-66
2022/04/27 11:36:54;;;;;;;7.82;2.55;;;13.20;99.90;;;;;;5167984;27;20047;-66
2022/04/27 11:39:22;;;;;;;4.80;2.90;;;13.30;99.90;;;;;;5167038;27;20042;-66
2022/04/27 11:41:56;;;;;;;6.00;2.45;;;13.60;99.90;;;;;;5148144;27;20035;-66
2022/04/27 11:44:22;;;;;;;5.22;2.60;;;13.50;99.90;;;;;;5149102;27;20113;-66
2022/04/27 11:46:48;;;;;;;6.32;2.70;;;13.10;99.90;;;;;;5167470;27;20073;-66
2022/04/27 11:49:13;;;;;;;7.50;3.67;;;13.20;99.90;;;;;;5147566;27;20038;-66
2022/04/27 11:51:46;;;;;;;16.58;3.42;;;13.20;99.90;;;;;;5160363;27;20046;-66
2022/04/27 11:54:24;;;;;;;7.93;3.88;;;13.00;99.90;;;;;;5147738;27;20059;-66
2022/04/27 11:57:03;;;;;;;14.65;3.90;;;12.80;99.90;;;;;;5166325;27;20058;-66
2022/04/27 11:59:45;;;;;;;7.37;3.00;;;13.00;99.90;;;;;;5147751;27;20046;-66
2022/04/27 12:02:11;;;;;;;8.10;2.78;;;13.10;99.90;;;;;;5144782;27;20291;-66
2022/04/27 12:04:38;;;;;;;6.75;2.80;;;13.40;99.90;;;;;;5158913;27;20039;-66
2022/04/27 12:07:16;;;;;;;6.13;3.20;;;13.60;99.90;;;;;;5167040;27;20055;-66
2022/04/27 12:10:16;;;;;;;9.85;3.38;;;13.90;99.90;;;;;;5148437;27;20035;-66
2022/04/27 12:12:42;;;;;;;10.45;3.60;;;13.60;99.90;;;;;;5157847;27;20066;-66
2022/04/27 12:15:12;;;;;;;6.53;3.63;;;13.40;99.90;;;;;;5148248;27;20047;-66
2022/04/27 12:17:48;;;;;;;10.55;4.72;;;13.40;99.90;;;;;;5165708;27;20042;-66
2022/04/27 12:20:38;;;;;;;6.85;3.75;;;13.40;99.90;;;;;;5132567;27;20136;-66
2022/04/27 12:23:11;;;;;;;8.25;3.58;;;13.60;99.90;;;;;;5145471;27;20047;-66
2022/04/27 12:25:44;;;;;;;11.10;3.60;;;13.60;99.90;;;;;;5146289;27;20046;-66
2022/04/27 12:28:13;;;;;;;7.47;4.03;;;13.70;99.90;;;;;;5145772;27;20042;-66
2022/04/27 12:30:54;;;;;;;6.72;3.83;;;13.80;99.90;;;;;;5126701;28;20622;-66
2022/04/27 12:33:25;;;;;;;7.97;3.53;;;13.60;99.90;;;;;;5145354;27;20046;-66
2022/04/27 12:38:38;;;;;;;9.65;3.70;;;13.50;99.90;;;;;;5148206;27;20049;-66
2022/04/27 12:41:06;;;;;;;8.68;4.00;;;13.70;99.90;;;;;;5147001;27;20058;-66
2022/04/27 12:43:32;;;;;;;6.32;3.78;;;14.10;99.90;;;;;;5130110;27;20045;-66
2022/04/27 12:46:06;;;;;;;8.00;3.95;;;14.50;99.90;;;;;;5165770;27;20118;-66
2022/04/27 12:48:33;;;;;;;10.18;4.32;;;14.60;99.90;;;;;;5147450;27;20066;-66
2022/04/27 12:50:59;;;;;;;10.70;3.70;;;14.70;99.90;;;;;;5147286;27;20054;-66
2022/04/27 12:53:26;;;;;;;8.43;3.88;;;14.50;99.90;;;;;;5165602;27;20035;-66
2022/04/27 12:56:09;;;;;;;7.93;3.50;;;14.60;99.90;;;;;;5131222;27;20051;-66
2022/04/27 12:58:36;;;;;;;8.80;3.45;;;14.70;99.90;;;;;;5126625;28;20055;-66
2022/04/27 13:01:02;;;;;;;9.98;3.75;;;14.80;99.90;;;;;;5145665;27;20038;-66
2022/04/27 13:03:28;;;;;;;11.95;4.07;;;14.50;99.90;;;;;;5127998;28;20039;-66
2022/04/27 13:05:53;;;;;;;11.57;3.55;;;14.30;99.90;;;;;;5145788;27;20037;-66
2022/04/27 13:08:19;;;;;;;8.27;3.38;;;14.40;99.90;;;;;;5146129;27;20039;-66
2022/04/27 13:13:30;;;;;;;11.73;3.90;;;14.90;99.90;;;;;;5145214;27;20051;-66
2022/04/27 13:15:56;;;;;;;11.52;3.92;;;14.70;99.90;;;;;;5126963;28;20092;-66
2022/04/27 13:18:22;;;;;;;7.78;3.35;;;14.80;99.90;;;;;;5154144;27;20042;-66
2022/04/27 13:20:50;;;;;;;11.70;3.80;;;14.90;99.90;;;;;;5140773;28;20035;-66